sensor_id;sensor_type;location;lat;lon;timestamp;P1;durP1;ratioP1;P2;durP2;ratioP2
66478;SDS011;53294;47.912;13.526;2022-12-10T00:01:35;14.45;;;9.60;;
66478;SDS011;53294;47.912;13.526;2022-12-10T00:04:02;14.13;;;9.50;;
66478;SDS011;53294;47.912;13.526;2022-12-10T00:06:31;15.77;;;10.02;;
66478;SDS011;53294;47.912;13.526;2022-12-10T00:08:59;16.25;;;10.48;;
66478;SDS011;53294;47.912;13.526;2022-12-10T00:11:28;14.82;;;9.88;;
66478;SDS011;53294;47.912;13.526;2022-12-10T00:13:55;15.88;;;9.77;;
66478;SDS011;53294;47.912;13.526;2022-12-10T00:16:23;14.10;;;9.30;;
66478;SDS011;53294;47.912;13.526;2022-12-10T00:18:52;13.85;;;9.13;;
66478;SDS011;53294;47.912;13.526;2022-12-10T00:21:21;16.23;;;10.00;;
66478;SDS011;53294;47.912;13.526;2022-12-10T00:23:49;14.45;;;9.73;;
66478;SDS011;53294;47.912;13.526;2022-12-10T00:26:23;13.50;;;9.00;;
66478;SDS011;53294;47.912;13.526;2022-12-10T00:28:50;15.85;;;9.13;;
66478;SDS011;53294;47.912;13.526;2022-12-10T00:33:48;13.63;;;8.73;;
66478;SDS011;53294;47.912;13.526;2022-12-10T00:36:16;13.40;;;8.57;;
66478;SDS011;53294;47.912;13.526;2022-12-10T00:38:48;12.80;;;8.17;;
66478;SDS011;53294;47.912;13.526;2022-12-10T00:41:15;13.35;;;9.07;;
66478;SDS011;53294;47.912;13.526;2022-12-10T00:43:42;14.95;;;9.82;;
66478;SDS011;53294;47.912;13.526;2022-12-10T00:46:10;16.27;;;10.73;;
66478;SDS011;53294;47.912;13.526;2022-12-10T00:48:38;15.82;;;9.63;;
66478;SDS011;53294;47.912;13.526;2022-12-10T00:51:06;14.23;;;9.45;;
66478;SDS011;53294;47.912;13.526;2022-12-10T00:53:36;14.07;;;9.15;;
66478;SDS011;53294;47.912;13.526;2022-12-10T00:56:03;12.20;;;8.88;;
66478;SDS011;53294;47.912;13.526;2022-12-10T00:58:32;12.77;;;8.20;;
66478;SDS011;53294;47.912;13.526;2022-12-10T01:01:10;12.38;;;8.57;;
66478;SDS011;53294;47.912;13.526;2022-12-10T01:03:39;14.00;;;9.07;;
66478;SDS011;53294;47.912;13.526;2022-12-10T01:06:07;12.45;;;8.57;;
66478;SDS011;53294;47.912;13.526;2022-12-10T01:08:35;12.43;;;8.07;;
66478;SDS011;53294;47.912;13.526;2022-12-10T01:11:02;11.43;;;8.07;;
66478;SDS011;53294;47.912;13.526;2022-12-10T01:13:29;13.80;;;8.95;;
66478;SDS011;53294;47.912;13.526;2022-12-10T01:15:55;14.90;;;9.57;;
66478;SDS011;53294;47.912;13.526;2022-12-10T01:18:22;13.18;;;9.15;;
66478;SDS011;53294;47.912;13.526;2022-12-10T01:20:48;14.00;;;9.43;;
66478;SDS011;53294;47.912;13.526;2022-12-10T01:23:15;14.23;;;9.38;;
66478;SDS011;53294;47.912;13.526;2022-12-10T01:25:42;15.60;;;10.32;;
66478;SDS011;53294;47.912;13.526;2022-12-10T01:28:08;16.63;;;10.13;;
66478;SDS011;53294;47.912;13.526;2022-12-10T01:30:35;14.68;;;9.40;;
66478;SDS011;53294;47.912;13.526;2022-12-10T01:33:02;15.60;;;9.65;;
66478;SDS011;53294;47.912;13.526;2022-12-10T01:35:28;15.88;;;10.73;;
66478;SDS011;53294;47.912;13.526;2022-12-10T01:37:55;15.02;;;9.75;;
66478;SDS011;53294;47.912;13.526;2022-12-10T01:40:21;15.30;;;9.73;;
66478;SDS011;53294;47.912;13.526;2022-12-10T01:42:48;15.85;;;11.00;;
66478;SDS011;53294;47.912;13.526;2022-12-10T01:45:14;13.68;;;8.80;;
66478;SDS011;53294;47.912;13.526;2022-12-10T01:47:41;13.85;;;9.30;;
66478;SDS011;53294;47.912;13.526;2022-12-10T01:50:08;15.27;;;9.20;;
66478;SDS011;53294;47.912;13.526;2022-12-10T01:52:35;15.02;;;9.95;;
66478;SDS011;53294;47.912;13.526;2022-12-10T01:55:06;15.43;;;10.30;;
66478;SDS011;53294;47.912;13.526;2022-12-10T01:57:53;16.13;;;9.85;;
66478;SDS011;53294;47.912;13.526;2022-12-10T02:00:20;16.30;;;9.98;;
66478;SDS011;53294;47.912;13.526;2022-12-10T02:02:49;17.08;;;10.68;;
66478;SDS011;53294;47.912;13.526;2022-12-10T02:05:31;17.38;;;10.55;;
66478;SDS011;53294;47.912;13.526;2022-12-10T02:16:00;14.93;;;9.60;;
66478;SDS011;53294;47.912;13.526;2022-12-10T02:18:34;15.35;;;10.05;;
66478;SDS011;53294;47.912;13.526;2022-12-10T02:21:06;15.30;;;9.15;;
66478;SDS011;53294;47.912;13.526;2022-12-10T02:23:40;14.52;;;8.90;;
66478;SDS011;53294;47.912;13.526;2022-12-10T02:31:52;15.95;;;9.73;;
66478;SDS011;53294;47.912;13.526;2022-12-10T02:34:23;12.82;;;8.50;;
66478;SDS011;53294;47.912;13.526;2022-12-10T02:36:54;15.50;;;9.23;;
66478;SDS011;53294;47.912;13.526;2022-12-10T02:39:24;13.15;;;8.80;;
66478;SDS011;53294;47.912;13.526;2022-12-10T02:41:55;16.70;;;9.40;;
66478;SDS011;53294;47.912;13.526;2022-12-10T02:44:26;13.30;;;9.43;;
66478;SDS011;53294;47.912;13.526;2022-12-10T02:46:55;17.02;;;10.30;;
66478;SDS011;53294;47.912;13.526;2022-12-10T02:49:23;17.85;;;10.85;;
66478;SDS011;53294;47.912;13.526;2022-12-10T02:51:52;16.38;;;10.55;;
66478;SDS011;53294;47.912;13.526;2022-12-10T02:54:36;16.08;;;10.60;;
66478;SDS011;53294;47.912;13.526;2022-12-10T02:57:29;18.25;;;10.68;;
66478;SDS011;53294;47.912;13.526;2022-12-10T03:00:16;17.98;;;10.82;;
66478;SDS011;53294;47.912;13.526;2022-12-10T03:08:47;17.67;;;11.18;;
66478;SDS011;53294;47.912;13.526;2022-12-10T03:11:23;18.77;;;11.13;;
66478;SDS011;53294;47.912;13.526;2022-12-10T03:13:58;20.20;;;12.48;;
66478;SDS011;53294;47.912;13.526;2022-12-10T03:16:35;18.77;;;11.50;;
66478;SDS011;53294;47.912;13.526;2022-12-10T03:19:07;17.15;;;10.27;;
66478;SDS011;53294;47.912;13.526;2022-12-10T03:21:46;17.75;;;11.30;;
66478;SDS011;53294;47.912;13.526;2022-12-10T03:24:17;18.13;;;10.55;;
66478;SDS011;53294;47.912;13.526;2022-12-10T03:26:45;17.52;;;10.95;;
66478;SDS011;53294;47.912;13.526;2022-12-10T03:29:15;21.05;;;12.75;;
66478;SDS011;53294;47.912;13.526;2022-12-10T03:31:47;18.05;;;11.60;;
66478;SDS011;53294;47.912;13.526;2022-12-10T03:34:14;18.02;;;11.77;;
66478;SDS011;53294;47.912;13.526;2022-12-10T03:36:41;16.88;;;11.05;;
66478;SDS011;53294;47.912;13.526;2022-12-10T03:39:10;18.50;;;11.52;;
66478;SDS011;53294;47.912;13.526;2022-12-10T03:41:38;19.83;;;12.10;;
66478;SDS011;53294;47.912;13.526;2022-12-10T03:44:05;18.65;;;11.00;;
66478;SDS011;53294;47.912;13.526;2022-12-10T03:46:32;19.65;;;11.80;;
66478;SDS011;53294;47.912;13.526;2022-12-10T03:49:00;19.75;;;11.32;;
66478;SDS011;53294;47.912;13.526;2022-12-10T03:51:27;21.77;;;12.60;;
66478;SDS011;53294;47.912;13.526;2022-12-10T03:53:54;19.80;;;11.93;;
66478;SDS011;53294;47.912;13.526;2022-12-10T03:56:21;19.35;;;11.68;;
66478;SDS011;53294;47.912;13.526;2022-12-10T03:58:48;20.25;;;11.90;;
66478;SDS011;53294;47.912;13.526;2022-12-10T04:01:14;18.30;;;11.35;;
66478;SDS011;53294;47.912;13.526;2022-12-10T04:03:42;19.77;;;11.48;;
66478;SDS011;53294;47.912;13.526;2022-12-10T04:06:10;21.65;;;13.10;;
66478;SDS011;53294;47.912;13.526;2022-12-10T04:08:40;17.80;;;11.30;;
66478;SDS011;53294;47.912;13.526;2022-12-10T04:11:07;20.05;;;11.95;;
66478;SDS011;53294;47.912;13.526;2022-12-10T04:13:36;19.25;;;12.32;;
66478;SDS011;53294;47.912;13.526;2022-12-10T04:16:23;20.25;;;12.43;;
66478;SDS011;53294;47.912;13.526;2022-12-10T04:19:00;19.00;;;10.73;;
66478;SDS011;53294;47.912;13.526;2022-12-10T04:21:29;20.00;;;12.32;;
66478;SDS011;53294;47.912;13.526;2022-12-10T04:24:16;18.70;;;10.93;;
66478;SDS011;53294;47.912;13.526;2022-12-10T04:27:08;16.95;;;10.30;;
66478;SDS011;53294;47.912;13.526;2022-12-10T04:32:03;19.17;;;12.18;;
66478;SDS011;53294;47.912;13.526;2022-12-10T04:34:30;17.20;;;10.95;;
66478;SDS011;53294;47.912;13.526;2022-12-10T04:36:57;20.60;;;12.30;;
66478;SDS011;53294;47.912;13.526;2022-12-10T04:39:25;18.38;;;10.77;;
66478;SDS011;53294;47.912;13.526;2022-12-10T04:41:52;19.55;;;11.15;;
66478;SDS011;53294;47.912;13.526;2022-12-10T04:44:18;17.85;;;10.85;;
66478;SDS011;53294;47.912;13.526;2022-12-10T04:46:46;18.40;;;11.10;;
66478;SDS011;53294;47.912;13.526;2022-12-10T04:49:13;18.98;;;10.82;;
66478;SDS011;53294;47.912;13.526;2022-12-10T04:51:40;18.20;;;11.02;;
66478;SDS011;53294;47.912;13.526;2022-12-10T04:54:07;20.92;;;12.05;;
66478;SDS011;53294;47.912;13.526;2022-12-10T04:56:35;17.52;;;12.18;;
66478;SDS011;53294;47.912;13.526;2022-12-10T04:59:02;20.23;;;11.70;;
66478;SDS011;53294;47.912;13.526;2022-12-10T05:01:30;17.90;;;10.75;;
66478;SDS011;53294;47.912;13.526;2022-12-10T05:04:01;18.17;;;11.15;;
66478;SDS011;53294;47.912;13.526;2022-12-10T05:06:29;16.35;;;10.52;;
66478;SDS011;53294;47.912;13.526;2022-12-10T05:08:57;19.10;;;11.55;;
66478;SDS011;53294;47.912;13.526;2022-12-10T05:11:24;18.75;;;10.90;;
66478;SDS011;53294;47.912;13.526;2022-12-10T05:13:53;17.70;;;10.90;;
66478;SDS011;53294;47.912;13.526;2022-12-10T05:16:21;18.65;;;11.23;;
66478;SDS011;53294;47.912;13.526;2022-12-10T05:18:49;18.20;;;11.93;;
66478;SDS011;53294;47.912;13.526;2022-12-10T05:21:17;20.23;;;12.25;;
66478;SDS011;53294;47.912;13.526;2022-12-10T05:23:46;21.27;;;11.93;;
66478;SDS011;53294;47.912;13.526;2022-12-10T05:26:18;17.45;;;10.85;;
66478;SDS011;53294;47.912;13.526;2022-12-10T05:28:53;20.55;;;12.20;;
66478;SDS011;53294;47.912;13.526;2022-12-10T05:31:22;18.77;;;11.18;;
66478;SDS011;53294;47.912;13.526;2022-12-10T05:33:51;18.88;;;11.55;;
66478;SDS011;53294;47.912;13.526;2022-12-10T05:36:20;17.05;;;10.98;;
66478;SDS011;53294;47.912;13.526;2022-12-10T05:38:49;20.10;;;11.82;;
66478;SDS011;53294;47.912;13.526;2022-12-10T05:41:18;23.30;;;12.38;;
66478;SDS011;53294;47.912;13.526;2022-12-10T05:43:48;19.45;;;11.70;;
66478;SDS011;53294;47.912;13.526;2022-12-10T05:46:19;19.65;;;12.10;;
66478;SDS011;53294;47.912;13.526;2022-12-10T05:48:51;20.42;;;12.38;;
66478;SDS011;53294;47.912;13.526;2022-12-10T05:51:22;19.45;;;11.75;;
66478;SDS011;53294;47.912;13.526;2022-12-10T05:53:54;19.90;;;11.95;;
66478;SDS011;53294;47.912;13.526;2022-12-10T05:56:22;20.85;;;12.23;;
66478;SDS011;53294;47.912;13.526;2022-12-10T05:58:52;22.17;;;12.25;;
66478;SDS011;53294;47.912;13.526;2022-12-10T06:01:24;19.15;;;11.27;;
66478;SDS011;53294;47.912;13.526;2022-12-10T06:03:52;22.17;;;12.30;;
66478;SDS011;53294;47.912;13.526;2022-12-10T06:06:24;20.77;;;12.38;;
66478;SDS011;53294;47.912;13.526;2022-12-10T06:08:55;24.25;;;13.70;;
66478;SDS011;53294;47.912;13.526;2022-12-10T06:11:22;20.90;;;12.95;;
66478;SDS011;53294;47.912;13.526;2022-12-10T06:13:50;20.83;;;12.73;;
66478;SDS011;53294;47.912;13.526;2022-12-10T06:16:21;20.42;;;12.27;;
66478;SDS011;53294;47.912;13.526;2022-12-10T06:18:49;20.75;;;12.80;;
66478;SDS011;53294;47.912;13.526;2022-12-10T06:21:17;18.55;;;10.55;;
66478;SDS011;53294;47.912;13.526;2022-12-10T06:23:45;20.17;;;12.43;;
66478;SDS011;53294;47.912;13.526;2022-12-10T06:26:17;18.33;;;11.70;;
66478;SDS011;53294;47.912;13.526;2022-12-10T06:28:46;18.83;;;12.25;;
66478;SDS011;53294;47.912;13.526;2022-12-10T06:31:17;18.52;;;11.73;;
66478;SDS011;53294;47.912;13.526;2022-12-10T06:33:44;17.33;;;10.98;;
66478;SDS011;53294;47.912;13.526;2022-12-10T06:36:12;21.20;;;12.05;;
66478;SDS011;53294;47.912;13.526;2022-12-10T06:38:41;20.17;;;12.45;;
66478;SDS011;53294;47.912;13.526;2022-12-10T06:41:09;17.55;;;11.10;;
66478;SDS011;53294;47.912;13.526;2022-12-10T06:43:37;16.48;;;10.60;;
66478;SDS011;53294;47.912;13.526;2022-12-10T06:46:05;19.15;;;11.77;;
66478;SDS011;53294;47.912;13.526;2022-12-10T06:48:36;20.67;;;13.25;;
66478;SDS011;53294;47.912;13.526;2022-12-10T06:51:04;25.45;;;15.88;;
66478;SDS011;53294;47.912;13.526;2022-12-10T06:53:31;23.25;;;12.73;;
66478;SDS011;53294;47.912;13.526;2022-12-10T06:56:00;23.02;;;14.52;;
66478;SDS011;53294;47.912;13.526;2022-12-10T06:58:28;20.83;;;12.80;;
66478;SDS011;53294;47.912;13.526;2022-12-10T07:01:08;23.50;;;14.38;;
66478;SDS011;53294;47.912;13.526;2022-12-10T07:03:37;23.20;;;14.45;;
66478;SDS011;53294;47.912;13.526;2022-12-10T07:06:04;22.58;;;13.77;;
66478;SDS011;53294;47.912;13.526;2022-12-10T07:08:32;22.50;;;12.88;;
66478;SDS011;53294;47.912;13.526;2022-12-10T07:10:59;21.05;;;12.43;;
66478;SDS011;53294;47.912;13.526;2022-12-10T07:13:30;20.77;;;11.57;;
66478;SDS011;53294;47.912;13.526;2022-12-10T07:15:57;20.77;;;12.02;;
66478;SDS011;53294;47.912;13.526;2022-12-10T07:18:24;24.10;;;14.02;;
66478;SDS011;53294;47.912;13.526;2022-12-10T07:20:51;22.60;;;13.13;;
66478;SDS011;53294;47.912;13.526;2022-12-10T07:23:17;20.50;;;12.65;;
66478;SDS011;53294;47.912;13.526;2022-12-10T07:25:44;21.50;;;13.13;;
66478;SDS011;53294;47.912;13.526;2022-12-10T07:28:11;19.38;;;12.15;;
66478;SDS011;53294;47.912;13.526;2022-12-10T07:30:38;20.55;;;13.00;;
66478;SDS011;53294;47.912;13.526;2022-12-10T07:33:05;22.92;;;13.73;;
66478;SDS011;53294;47.912;13.526;2022-12-10T07:35:31;23.88;;;13.60;;
66478;SDS011;53294;47.912;13.526;2022-12-10T07:37:58;23.67;;;13.70;;
66478;SDS011;53294;47.912;13.526;2022-12-10T07:40:24;24.73;;;14.38;;
66478;SDS011;53294;47.912;13.526;2022-12-10T07:42:51;21.50;;;12.18;;
66478;SDS011;53294;47.912;13.526;2022-12-10T07:45:18;21.80;;;13.45;;
66478;SDS011;53294;47.912;13.526;2022-12-10T07:47:44;22.02;;;13.57;;
66478;SDS011;53294;47.912;13.526;2022-12-10T07:50:11;22.65;;;12.80;;
66478;SDS011;53294;47.912;13.526;2022-12-10T07:52:37;20.00;;;12.55;;
66478;SDS011;53294;47.912;13.526;2022-12-10T07:55:04;21.88;;;13.40;;
66478;SDS011;53294;47.912;13.526;2022-12-10T07:57:31;21.27;;;12.65;;
66478;SDS011;53294;47.912;13.526;2022-12-10T07:59:58;20.70;;;12.70;;
66478;SDS011;53294;47.912;13.526;2022-12-10T08:02:25;21.95;;;13.05;;
66478;SDS011;53294;47.912;13.526;2022-12-10T08:04:52;24.80;;;14.38;;
66478;SDS011;53294;47.912;13.526;2022-12-10T08:07:18;23.13;;;14.43;;
66478;SDS011;53294;47.912;13.526;2022-12-10T08:09:45;22.90;;;13.52;;
66478;SDS011;53294;47.912;13.526;2022-12-10T08:12:12;21.98;;;14.25;;
66478;SDS011;53294;47.912;13.526;2022-12-10T08:14:38;24.10;;;13.80;;
66478;SDS011;53294;47.912;13.526;2022-12-10T08:17:05;20.10;;;12.48;;
66478;SDS011;53294;47.912;13.526;2022-12-10T08:19:32;23.23;;;14.68;;
66478;SDS011;53294;47.912;13.526;2022-12-10T08:21:59;23.25;;;13.43;;
66478;SDS011;53294;47.912;13.526;2022-12-10T08:24:26;22.63;;;14.07;;
66478;SDS011;53294;47.912;13.526;2022-12-10T08:26:52;24.33;;;15.50;;
66478;SDS011;53294;47.912;13.526;2022-12-10T08:29:19;23.55;;;13.95;;
66478;SDS011;53294;47.912;13.526;2022-12-10T08:31:45;21.92;;;13.38;;
66478;SDS011;53294;47.912;13.526;2022-12-10T08:34:13;24.35;;;13.80;;
66478;SDS011;53294;47.912;13.526;2022-12-10T08:36:41;23.13;;;14.90;;
66478;SDS011;53294;47.912;13.526;2022-12-10T08:39:09;25.27;;;15.07;;
66478;SDS011;53294;47.912;13.526;2022-12-10T08:41:36;20.15;;;13.50;;
66478;SDS011;53294;47.912;13.526;2022-12-10T08:44:03;23.02;;;14.60;;
66478;SDS011;53294;47.912;13.526;2022-12-10T08:46:30;22.20;;;14.05;;
66478;SDS011;53294;47.912;13.526;2022-12-10T08:48:56;21.40;;;13.40;;
66478;SDS011;53294;47.912;13.526;2022-12-10T08:51:23;21.52;;;13.55;;
66478;SDS011;53294;47.912;13.526;2022-12-10T08:53:50;21.65;;;13.07;;
66478;SDS011;53294;47.912;13.526;2022-12-10T08:56:17;26.15;;;16.42;;
66478;SDS011;53294;47.912;13.526;2022-12-10T08:58:44;27.45;;;16.83;;
66478;SDS011;53294;47.912;13.526;2022-12-10T09:01:12;25.70;;;15.80;;
66478;SDS011;53294;47.912;13.526;2022-12-10T09:03:41;22.92;;;14.63;;
66478;SDS011;53294;47.912;13.526;2022-12-10T09:06:09;24.20;;;14.82;;
66478;SDS011;53294;47.912;13.526;2022-12-10T09:08:38;29.33;;;17.48;;
66478;SDS011;53294;47.912;13.526;2022-12-10T09:11:07;30.35;;;18.30;;
66478;SDS011;53294;47.912;13.526;2022-12-10T09:13:35;24.30;;;15.63;;
66478;SDS011;53294;47.912;13.526;2022-12-10T09:16:02;27.60;;;17.08;;
66478;SDS011;53294;47.912;13.526;2022-12-10T09:18:29;23.00;;;14.10;;
66478;SDS011;53294;47.912;13.526;2022-12-10T09:20:56;23.83;;;14.10;;
66478;SDS011;53294;47.912;13.526;2022-12-10T09:23:23;25.20;;;15.25;;
66478;SDS011;53294;47.912;13.526;2022-12-10T09:25:50;24.38;;;14.88;;
66478;SDS011;53294;47.912;13.526;2022-12-10T09:28:16;21.08;;;13.70;;
66478;SDS011;53294;47.912;13.526;2022-12-10T09:30:43;24.70;;;14.07;;
66478;SDS011;53294;47.912;13.526;2022-12-10T09:33:10;21.23;;;13.68;;
66478;SDS011;53294;47.912;13.526;2022-12-10T09:35:39;24.67;;;15.43;;
66478;SDS011;53294;47.912;13.526;2022-12-10T09:38:07;23.83;;;15.18;;
66478;SDS011;53294;47.912;13.526;2022-12-10T09:40:43;22.38;;;14.93;;
66478;SDS011;53294;47.912;13.526;2022-12-10T09:43:19;23.52;;;15.18;;
66478;SDS011;53294;47.912;13.526;2022-12-10T09:46:04;25.23;;;14.85;;
66478;SDS011;53294;47.912;13.526;2022-12-10T09:51:21;23.77;;;14.80;;
66478;SDS011;53294;47.912;13.526;2022-12-10T09:53:49;24.15;;;15.77;;
66478;SDS011;53294;47.912;13.526;2022-12-10T09:56:26;27.52;;;17.05;;
66478;SDS011;53294;47.912;13.526;2022-12-10T09:58:58;22.73;;;15.48;;
66478;SDS011;53294;47.912;13.526;2022-12-10T10:01:28;22.67;;;14.38;;
66478;SDS011;53294;47.912;13.526;2022-12-10T10:03:56;21.40;;;13.27;;
66478;SDS011;53294;47.912;13.526;2022-12-10T10:06:23;18.90;;;12.57;;
66478;SDS011;53294;47.912;13.526;2022-12-10T10:08:53;21.30;;;12.48;;
66478;SDS011;53294;47.912;13.526;2022-12-10T10:11:25;18.10;;;11.90;;
66478;SDS011;53294;47.912;13.526;2022-12-10T10:16:26;19.60;;;13.20;;
66478;SDS011;53294;47.912;13.526;2022-12-10T10:19:06;19.40;;;12.75;;
66478;SDS011;53294;47.912;13.526;2022-12-10T10:21:43;19.73;;;13.02;;
66478;SDS011;53294;47.912;13.526;2022-12-10T10:24:14;20.25;;;12.48;;
66478;SDS011;53294;47.912;13.526;2022-12-10T10:26:43;20.67;;;13.15;;
66478;SDS011;53294;47.912;13.526;2022-12-10T10:29:13;21.45;;;13.05;;
66478;SDS011;53294;47.912;13.526;2022-12-10T10:31:42;20.73;;;13.32;;
66478;SDS011;53294;47.912;13.526;2022-12-10T10:34:20;19.55;;;12.80;;
66478;SDS011;53294;47.912;13.526;2022-12-10T10:36:56;23.02;;;14.55;;
66478;SDS011;53294;47.912;13.526;2022-12-10T10:39:26;22.90;;;13.80;;
66478;SDS011;53294;47.912;13.526;2022-12-10T10:41:56;21.10;;;13.93;;
66478;SDS011;53294;47.912;13.526;2022-12-10T10:44:28;20.98;;;14.02;;
66478;SDS011;53294;47.912;13.526;2022-12-10T10:47:01;24.33;;;15.35;;
66478;SDS011;53294;47.912;13.526;2022-12-10T10:49:29;24.38;;;15.95;;
66478;SDS011;53294;47.912;13.526;2022-12-10T10:52:12;24.45;;;15.57;;
66478;SDS011;53294;47.912;13.526;2022-12-10T10:54:45;23.23;;;14.45;;
66478;SDS011;53294;47.912;13.526;2022-12-10T11:02:49;21.17;;;15.05;;
66478;SDS011;53294;47.912;13.526;2022-12-10T11:05:23;24.10;;;15.02;;
66478;SDS011;53294;47.912;13.526;2022-12-10T11:08:02;25.83;;;15.85;;
66478;SDS011;53294;47.912;13.526;2022-12-10T11:10:30;21.05;;;12.98;;
66478;SDS011;53294;47.912;13.526;2022-12-10T11:12:58;19.13;;;13.20;;
66478;SDS011;53294;47.912;13.526;2022-12-10T11:18:00;20.80;;;12.52;;
66478;SDS011;53294;47.912;13.526;2022-12-10T11:20:32;21.48;;;14.35;;
66478;SDS011;53294;47.912;13.526;2022-12-10T11:23:08;24.55;;;13.85;;
66478;SDS011;53294;47.912;13.526;2022-12-10T11:35:00;22.52;;;15.13;;
66478;SDS011;53294;47.912;13.526;2022-12-10T11:36:58;23.70;;;14.02;;
66478;SDS011;53294;47.912;13.526;2022-12-10T11:43:07;19.25;;;12.18;;
66478;SDS011;53294;47.912;13.526;2022-12-10T11:48:17;21.38;;;13.98;;
66478;SDS011;53294;47.912;13.526;2022-12-10T11:51:51;21.27;;;13.18;;
66478;SDS011;53294;47.912;13.526;2022-12-10T11:54:14;21.98;;;13.10;;
66478;SDS011;53294;47.912;13.526;2022-12-10T11:57:02;23.77;;;13.70;;
66478;SDS011;53294;47.912;13.526;2022-12-10T11:59:57;20.90;;;13.07;;
66478;SDS011;53294;47.912;13.526;2022-12-10T12:02:45;21.90;;;14.05;;
66478;SDS011;53294;47.912;13.526;2022-12-10T12:10:54;25.90;;;15.55;;
66478;SDS011;53294;47.912;13.526;2022-12-10T12:13:24;33.05;;;19.35;;
66478;SDS011;53294;47.912;13.526;2022-12-10T12:18:36;26.77;;;15.70;;
66478;SDS011;53294;47.912;13.526;2022-12-10T12:21:11;28.75;;;17.45;;
66478;SDS011;53294;47.912;13.526;2022-12-10T12:23:51;23.27;;;15.15;;
66478;SDS011;53294;47.912;13.526;2022-12-10T12:26:29;27.60;;;17.23;;
66478;SDS011;53294;47.912;13.526;2022-12-10T12:29:15;30.05;;;19.02;;
66478;SDS011;53294;47.912;13.526;2022-12-10T12:32:08;28.55;;;15.88;;
66478;SDS011;53294;47.912;13.526;2022-12-10T12:37:34;26.48;;;17.17;;
66478;SDS011;53294;47.912;13.526;2022-12-10T12:40:12;27.00;;;17.55;;
66478;SDS011;53294;47.912;13.526;2022-12-10T12:42:56;26.73;;;16.88;;
66478;SDS011;53294;47.912;13.526;2022-12-10T12:45:31;29.60;;;17.83;;
66478;SDS011;53294;47.912;13.526;2022-12-10T12:48:29;29.98;;;17.95;;
66478;SDS011;53294;47.912;13.526;2022-12-10T12:53:40;30.17;;;18.77;;
66478;SDS011;53294;47.912;13.526;2022-12-10T12:56:11;31.90;;;18.65;;
66478;SDS011;53294;47.912;13.526;2022-12-10T13:01:42;27.20;;;16.45;;
66478;SDS011;53294;47.912;13.526;2022-12-10T13:04:15;26.70;;;16.73;;
66478;SDS011;53294;47.912;13.526;2022-12-10T13:06:42;29.13;;;16.70;;
66478;SDS011;53294;47.912;13.526;2022-12-10T13:09:44;29.38;;;16.58;;
66478;SDS011;53294;47.912;13.526;2022-12-10T13:12:16;26.15;;;15.65;;
66478;SDS011;53294;47.912;13.526;2022-12-10T13:41:32;25.17;;;15.30;;
66478;SDS011;53294;47.912;13.526;2022-12-10T13:47:27;25.73;;;15.50;;
66478;SDS011;53294;47.912;13.526;2022-12-10T13:50:01;29.10;;;17.25;;
66478;SDS011;53294;47.912;13.526;2022-12-10T13:52:43;27.13;;;16.83;;
66478;SDS011;53294;47.912;13.526;2022-12-10T13:57:56;27.75;;;16.50;;
66478;SDS011;53294;47.912;13.526;2022-12-10T14:00:56;29.23;;;16.98;;
66478;SDS011;53294;47.912;13.526;2022-12-10T14:04:00;27.63;;;17.67;;
66478;SDS011;53294;47.912;13.526;2022-12-10T14:06:51;25.70;;;15.13;;
66478;SDS011;53294;47.912;13.526;2022-12-10T14:09:23;26.05;;;15.98;;
66478;SDS011;53294;47.912;13.526;2022-12-10T14:14:34;24.85;;;16.52;;
66478;SDS011;53294;47.912;13.526;2022-12-10T14:17:13;28.50;;;16.80;;
66478;SDS011;53294;47.912;13.526;2022-12-10T14:19:45;27.88;;;16.88;;
66478;SDS011;53294;47.912;13.526;2022-12-10T14:25:44;25.73;;;16.08;;
66478;SDS011;53294;47.912;13.526;2022-12-10T14:28:13;26.40;;;15.25;;
66478;SDS011;53294;47.912;13.526;2022-12-10T14:30:45;27.48;;;16.67;;
66478;SDS011;53294;47.912;13.526;2022-12-10T14:33:16;23.95;;;14.95;;
66478;SDS011;53294;47.912;13.526;2022-12-10T14:35:48;23.92;;;14.80;;
66478;SDS011;53294;47.912;13.526;2022-12-10T14:38:20;22.83;;;14.65;;
66478;SDS011;53294;47.912;13.526;2022-12-10T14:40:53;25.17;;;16.02;;
66478;SDS011;53294;47.912;13.526;2022-12-10T14:43:21;25.20;;;15.38;;
66478;SDS011;53294;47.912;13.526;2022-12-10T14:45:53;25.30;;;14.93;;
66478;SDS011;53294;47.912;13.526;2022-12-10T14:48:23;25.35;;;15.63;;
66478;SDS011;53294;47.912;13.526;2022-12-10T14:50:51;27.42;;;16.35;;
66478;SDS011;53294;47.912;13.526;2022-12-10T14:53:25;26.35;;;15.20;;
66478;SDS011;53294;47.912;13.526;2022-12-10T14:55:59;25.10;;;15.65;;
66478;SDS011;53294;47.912;13.526;2022-12-10T14:58:36;24.73;;;14.95;;
66478;SDS011;53294;47.912;13.526;2022-12-10T15:01:26;24.20;;;14.63;;
66478;SDS011;53294;47.912;13.526;2022-12-10T15:04:04;26.77;;;16.08;;
66478;SDS011;53294;47.912;13.526;2022-12-10T15:06:38;28.92;;;15.25;;
66478;SDS011;53294;47.912;13.526;2022-12-10T15:09:06;32.83;;;18.48;;
66478;SDS011;53294;47.912;13.526;2022-12-10T15:11:40;27.95;;;15.88;;
66478;SDS011;53294;47.912;13.526;2022-12-10T15:14:10;28.25;;;15.63;;
66478;SDS011;53294;47.912;13.526;2022-12-10T15:16:44;25.83;;;15.65;;
66478;SDS011;53294;47.912;13.526;2022-12-10T15:19:25;25.75;;;15.07;;
66478;SDS011;53294;47.912;13.526;2022-12-10T15:22:15;28.08;;;16.15;;
66478;SDS011;53294;47.912;13.526;2022-12-10T15:24:45;32.88;;;17.70;;
66478;SDS011;53294;47.912;13.526;2022-12-10T15:27:19;28.45;;;15.65;;
66478;SDS011;53294;47.912;13.526;2022-12-10T15:29:51;28.10;;;15.27;;
66478;SDS011;53294;47.912;13.526;2022-12-10T15:32:22;25.38;;;14.98;;
66478;SDS011;53294;47.912;13.526;2022-12-10T15:34:57;33.47;;;17.02;;
66478;SDS011;53294;47.912;13.526;2022-12-10T15:39:55;28.17;;;15.10;;
66478;SDS011;53294;47.912;13.526;2022-12-10T15:42:46;31.95;;;17.52;;
66478;SDS011;53294;47.912;13.526;2022-12-10T15:45:22;29.50;;;17.67;;
66478;SDS011;53294;47.912;13.526;2022-12-10T15:47:54;31.27;;;18.17;;
66478;SDS011;53294;47.912;13.526;2022-12-10T15:50:25;29.23;;;17.55;;
66478;SDS011;53294;47.912;13.526;2022-12-10T15:52:52;31.17;;;18.00;;
66478;SDS011;53294;47.912;13.526;2022-12-10T15:55:20;29.30;;;17.13;;
66478;SDS011;53294;47.912;13.526;2022-12-10T15:57:47;29.88;;;17.70;;
66478;SDS011;53294;47.912;13.526;2022-12-10T16:00:19;35.50;;;19.88;;
66478;SDS011;53294;47.912;13.526;2022-12-10T16:05:26;35.17;;;18.70;;
66478;SDS011;53294;47.912;13.526;2022-12-10T16:07:56;30.17;;;18.92;;
66478;SDS011;53294;47.912;13.526;2022-12-10T16:10:26;33.38;;;18.10;;
66478;SDS011;53294;47.912;13.526;2022-12-10T16:13:04;29.20;;;18.15;;
66478;SDS011;53294;47.912;13.526;2022-12-10T16:15:34;33.60;;;18.30;;
66478;SDS011;53294;47.912;13.526;2022-12-10T16:18:09;32.85;;;18.13;;
66478;SDS011;53294;47.912;13.526;2022-12-10T16:20:37;32.40;;;19.42;;
66478;SDS011;53294;47.912;13.526;2022-12-10T16:23:04;37.05;;;19.52;;
66478;SDS011;53294;47.912;13.526;2022-12-10T16:25:32;31.08;;;19.10;;
66478;SDS011;53294;47.912;13.526;2022-12-10T16:28:01;34.05;;;19.35;;